Terminal Aerodrome Forecast
Issued by NWS

Home | Current Version | Previous Version | Text Only | Print | Product List | Glossary Off
Versions: 1 2 3 4 5 6 7 8 9 10 11 12 13 14 15 16 17 18 19 20 21 22 23 24

470
FTUS45 KGGW 251139
TAFGDV
TAF
KGDV 251139Z 2512/2612 02013KT P6SM FEW120
     FM251900 36010KT P6SM FEW160
     FM261100 04007KT P6SM FEW110=

USA.gov is the U.S. government's official web portal to all federal, state and local government web resources and services.